Time;durP1;ratioP1;P1;durP2;ratioP2;P2;SDS_P1;SDS_P2;PMS_P1;PMS_P2;Temp;Humidity;BMP_temperature;BMP_pressure;BME280_temperature;BME280_humidity;BME280_pressure;Samples;Min_cycle;Max_cycle;Signal;HPM_P1;HPM_P2
2021/12/08 00:00:55;;;;;;;;;;;;;;;25.81;60.64;95882.33;606626;234;67109;-67
2021/12/08 00:03:24;;;;;;;;;;;;;;;25.81;62.74;95890.41;606571;234;64877;-66
2021/12/08 00:05:52;;;;;;;;;;;;;;;25.80;61.86;95893.41;606606;234;65079;-67
2021/12/08 00:08:20;;;;;;;;;;;;;;;25.80;60.91;95894.19;606543;234;64830;-65
2021/12/08 00:13:32;;;;;;;;;;;;;;;25.78;60.09;95895.63;606641;234;67185;-66
2021/12/08 00:16:01;;;;;;;;;;;;;;;25.76;62.63;95895.98;606613;234;64393;-65
2021/12/08 00:18:32;;;;;;;;;;;;;;;25.74;61.07;95892.83;606593;234;65111;-65
2021/12/08 00:21:00;;;;;;;;;;;;;;;25.76;63.23;95898.67;606569;234;67530;-65
2021/12/08 00:23:29;;;;;;;;;;;;;;;25.75;63.08;95902.46;606543;234;64829;-66
2021/12/08 00:25:57;;;;;;;;;;;;;;;25.71;64.56;95909.63;606587;234;65134;-65
2021/12/08 00:28:25;;;;;;;;;;;;;;;25.71;64.19;95904.25;606616;234;66914;-65
2021/12/08 00:30:54;;;;;;;;;;;;;;;25.70;62.53;95905.38;606598;234;66790;-65
2021/12/08 00:33:22;;;;;;;;;;;;;;;25.70;62.75;95910.76;606554;234;65681;-65
2021/12/08 00:35:51;;;;;;;;;;;;;;;25.70;63.14;95910.76;606610;234;66882;-66
2021/12/08 00:38:19;;;;;;;;;;;;;;;25.70;64.84;95913.45;606568;234;67639;-66
2021/12/08 00:40:48;;;;;;;;;;;;;;;25.69;64.03;95919.92;606645;231;65024;-66
2021/12/08 00:43:16;;;;;;;;;;;;;;;25.67;61.88;95911.39;606532;234;64711;-66
2021/12/08 00:45:43;;;;;;;;;;;;;;;25.66;61.69;95915.98;606580;234;65135;-66
2021/12/08 00:48:11;;;;;;;;;;;;;;;25.65;63.34;95917.11;606549;234;65075;-66
2021/12/08 00:50:40;;;;;;;;;;;;;;;25.64;64.57;95918.20;606554;234;67360;-66
2021/12/08 00:53:08;;;;;;;;;;;;;;;25.63;64.06;95932.00;606922;233;64985;-66
2021/12/08 00:55:36;;;;;;;;;;;;;;;25.64;63.67;95923.59;608149;233;62931;-66
2021/12/08 00:58:04;;;;;;;;;;;;;;;25.61;62.98;95926.94;608180;233;64981;-66
2021/12/08 01:00:33;;;;;;;;;;;;;;;25.63;63.62;95937.39;608133;233;64830;-66
2021/12/08 01:03:01;;;;;;;;;;;;;;;25.62;58.26;95925.06;608125;233;62939;-66
2021/12/08 01:05:30;;;;;;;;;;;;;;;25.62;64.46;95933.91;608182;233;64878;-66
2021/12/08 01:07:57;;;;;;;;;;;;;;;25.61;64.01;95942.30;608183;233;66899;-66
2021/12/08 01:10:26;;;;;;;;;;;;;;;25.59;60.03;95939.95;608156;233;65193;-66
2021/12/08 01:12:54;;;;;;;;;;;;;;;25.60;62.71;95943.42;608129;233;67202;-66
2021/12/08 01:15:24;;;;;;;;;;;;;;;25.59;64.27;95941.83;608137;233;67094;-67
2021/12/08 01:17:51;;;;;;;;;;;;;;;25.59;61.43;95939.14;608169;233;65016;-67
2021/12/08 01:20:19;;;;;;;;;;;;;;;25.59;63.98;95945.33;608200;233;67405;-66
2021/12/08 01:22:47;;;;;;;;;;;;;;;25.60;63.29;95949.59;608127;233;68177;-67
2021/12/08 01:25:15;;;;;;;;;;;;;;;25.58;60.30;95948.33;608156;233;65107;-67
2021/12/08 01:27:42;;;;;;;;;;;;;;;25.58;62.27;95951.02;608157;233;67199;-66
2021/12/08 01:30:11;;;;;;;;;;;;;;;25.58;62.80;95951.02;608176;233;64624;-67
2021/12/08 01:32:38;;;;;;;;;;;;;;;25.57;62.77;95946.77;608219;233;65055;-67
2021/12/08 01:35:08;;;;;;;;;;;;;;;25.56;64.65;95950.55;608180;233;67298;-67
2021/12/08 01:37:36;;;;;;;;;;;;;;;25.55;60.94;95946.30;608090;233;65186;-67
2021/12/08 01:40:08;;;;;;;;;;;;;;;25.55;60.52;95954.37;608179;233;62775;-67
2021/12/08 01:42:42;;;;;;;;;;;;;;;25.55;62.83;95957.06;608223;233;67372;-67
2021/12/08 01:47:51;;;;;;;;;;;;;;;25.52;60.14;95953.12;608199;233;62985;-66
2021/12/08 01:50:18;;;;;;;;;;;;;;;25.54;61.59;95950.89;608169;233;66993;-66
2021/12/08 01:52:45;;;;;;;;;;;;;;;25.52;65.27;95960.41;608118;233;66796;-67
2021/12/08 01:55:13;;;;;;;;;;;;;;;25.51;58.29;95965.00;608210;233;65026;-67
2021/12/08 01:57:40;;;;;;;;;;;;;;;25.51;64.12;95956.13;608256;233;66970;-67
2021/12/08 02:00:09;;;;;;;;;;;;;;;25.51;62.99;95965.00;608172;233;66793;-66
2021/12/08 02:02:37;;;;;;;;;;;;;;;25.47;63.34;95972.13;608136;233;65417;-66
2021/12/08 02:05:05;;;;;;;;;;;;;;;25.46;63.21;95968.66;608154;233;67275;-66
2021/12/08 02:07:33;;;;;;;;;;;;;;;25.45;63.08;95975.16;608169;233;66946;-66
2021/12/08 02:10:01;;;;;;;;;;;;;;;25.46;64.35;95976.73;608226;233;63120;-66
2021/12/08 02:12:30;;;;;;;;;;;;;;;25.45;63.03;95969.78;608246;233;67202;-66
2021/12/08 02:14:59;;;;;;;;;;;;;;;25.45;64.47;95974.34;608163;233;66864;-66
2021/12/08 02:17:27;;;;;;;;;;;;;;;25.42;63.38;95978.47;608163;233;65164;-66
2021/12/08 02:19:54;;;;;;;;;;;;;;;25.43;62.43;95981.98;608193;233;67281;-65
2021/12/08 02:22:22;;;;;;;;;;;;;;;25.44;63.68;95978.95;608201;233;66965;-65
2021/12/08 02:24:49;;;;;;;;;;;;;;;25.43;60.32;95974.69;608223;233;65020;-65
2021/12/08 02:27:17;;;;;;;;;;;;;;;25.45;62.92;95985.92;608139;233;67553;-65
2021/12/08 02:29:52;;;;;;;;;;;;;;;25.43;63.14;95979.29;608181;233;64607;-65
2021/12/08 02:46:34;;;;;;;;;;;;;;;25.42;64.48;95981.16;607855;233;63803;-65
2021/12/08 02:48:31;;;;;;;;;;;;;;;25.38;59.96;95999.08;608195;233;63024;-65
2021/12/08 02:50:59;;;;;;;;;;;;;;;25.38;62.88;95993.70;608133;233;65025;-65
2021/12/08 02:53:26;;;;;;;;;;;;;;;25.36;58.16;95997.82;607542;233;65226;-65
2021/12/08 02:55:54;;;;;;;;;;;;;;;25.35;63.03;95999.73;606593;234;62982;-65
2021/12/08 02:58:21;;;;;;;;;;;;;;;25.35;63.04;96005.11;606637;234;65169;-65
2021/12/08 03:00:50;;;;;;;;;;;;;;;25.35;57.27;96001.64;606579;234;64876;-65
2021/12/08 03:03:18;;;;;;;;;;;;;;;25.36;61.76;96011.27;606569;234;64854;-66
2021/12/08 03:05:46;;;;;;;;;;;;;;;25.32;62.54;96013.83;606543;234;65740;-66
2021/12/08 03:08:13;;;;;;;;;;;;;;;25.32;61.91;96013.83;606601;234;65632;-67
2021/12/08 03:10:42;;;;;;;;;;;;;;;25.33;63.10;96015.39;606671;234;62755;-66
2021/12/08 03:13:10;;;;;;;;;;;;;;;25.31;58.59;96017.61;606564;234;64694;-67
2021/12/08 03:15:38;;;;;;;;;;;;;;;25.33;58.20;96018.08;606591;234;64919;-66
2021/12/08 03:18:05;;;;;;;;;;;;;;;25.32;58.27;96019.20;606536;234;62977;-66
2021/12/08 03:20:41;;;;;;;;;;;;;;;25.31;57.56;96014.91;606584;234;65354;-66
2021/12/08 03:23:10;;;;;;;;;;;;;;;25.31;63.21;96017.61;606586;234;67338;-66
2021/12/08 03:25:41;;;;;;;;;;;;;;;25.30;59.86;96010.66;606625;234;65070;-66
2021/12/08 03:28:16;;;;;;;;;;;;;;;25.28;60.52;96012.88;606530;233;64940;-66
2021/12/08 03:30:54;;;;;;;;;;;;;;;25.28;62.17;96020.16;606260;234;64871;-66
2021/12/08 03:33:08;;;;;;;;;;;;;;;25.27;59.53;96019.38;605603;234;65164;-66
2021/12/08 03:35:36;;;;;;;;;;;;;;;25.28;60.37;96020.94;606603;234;65185;-66
2021/12/08 03:38:04;;;;;;;;;;;;;;;25.26;60.36;96015.09;606632;234;64964;-67
2021/12/08 03:40:32;;;;;;;;;;;;;;;25.25;57.87;96025.06;606589;234;65064;-66
2021/12/08 03:43:00;;;;;;;;;;;;;;;25.24;61.01;96020.81;606537;234;67403;-66
2021/12/08 03:45:31;;;;;;;;;;;;;;;25.23;59.90;96032.66;606548;234;66701;-67
2021/12/08 03:48:02;;;;;;;;;;;;;;;25.22;58.45;96020.34;606513;233;65151;-66
2021/12/08 03:50:30;;;;;;;;;;;;;;;25.21;58.80;96034.12;606569;234;67368;-66
2021/12/08 03:52:58;;;;;;;;;;;;;;;25.22;60.87;96041.06;606562;234;67043;-66
2021/12/08 03:55:25;;;;;;;;;;;;;;;25.19;59.64;96037.11;606565;234;65004;-66
2021/12/08 03:57:53;;;;;;;;;;;;;;;25.20;59.95;96037.90;606587;234;67275;-67
2021/12/08 04:00:22;;;;;;;;;;;;;;;25.21;58.53;96042.19;606582;234;66727;-66
2021/12/08 04:02:50;;;;;;;;;;;;;;;25.19;60.17;96045.18;606583;234;62823;-66
2021/12/08 04:05:20;;;;;;;;;;;;;;;25.17;59.61;96043.92;606601;234;64993;-66
2021/12/08 04:07:51;;;;;;;;;;;;;;;25.16;60.41;96053.11;606531;234;65157;-65
2021/12/08 04:10:20;;;;;;;;;;;;;;;25.17;59.46;96060.05;606566;234;64872;-65
2021/12/08 04:12:48;;;;;;;;;;;;;;;25.16;59.58;96061.17;606576;234;67118;-65
2021/12/08 04:15:16;;;;;;;;;;;;;;;25.15;62.99;96067.64;606574;234;64452;-65
2021/12/08 04:17:45;;;;;;;;;;;;;;;25.14;61.87;96063.36;606624;234;65050;-65
2021/12/08 04:20:14;;;;;;;;;;;;;;;25.14;61.42;96072.20;606590;234;64814;-65
2021/12/08 04:22:43;;;;;;;;;;;;;;;25.11;61.07;96075.54;606511;234;64672;-65
2021/12/08 04:25:12;;;;;;;;;;;;;;;25.11;60.91;96077.44;606618;234;63814;-65
2021/12/08 04:27:41;;;;;;;;;;;;;;;25.12;61.74;96073.63;606614;234;66484;-65
2021/12/08 04:30:09;;;;;;;;;;;;;;;25.10;58.80;96075.84;606594;234;64710;-65
2021/12/08 04:32:37;;;;;;;;;;;;;;;25.10;62.23;96081.22;606585;233;63057;-65
2021/12/08 04:35:07;;;;;;;;;;;;;;;25.09;60.15;96077.75;606558;234;64910;-65
2021/12/08 04:37:36;;;;;;;;;;;;;;;25.09;61.28;96087.72;606539;234;66578;-65
2021/12/08 04:40:24;;;;;;;;;;;;;;;25.07;61.83;96088.03;606577;234;65058;-65
2021/12/08 04:43:05;;;;;;;;;;;;;;;25.07;62.32;96088.03;605916;234;66841;-65
2021/12/08 04:45:47;;;;;;;;;;;;;;;25.05;59.11;96097.55;606097;234;66788;-65
2021/12/08 04:53:33;;;;;;;;;;;;;;;25.02;60.87;96107.03;606921;233;66659;-65
2021/12/08 05:04:55;;;;;;;;;;;;;;;24.99;60.49;96118.41;608166;233;62791;-65
2021/12/08 05:06:45;;;;;;;;;;;;;;;24.99;60.63;96124.59;603605;233;64596;-66
2021/12/08 05:09:09;;;;;;;;;;;;;;;24.99;62.94;96129.15;607922;233;67938;-66
2021/12/08 05:11:38;;;;;;;;;;;;;;;24.97;62.30;96124.11;608032;232;62910;-67
2021/12/08 05:14:10;;;;;;;;;;;;;;;24.95;60.08;96120.94;608167;233;64864;-67
2021/12/08 05:16:39;;;;;;;;;;;;;;;24.94;63.33;96130.13;608037;232;66840;-66
2021/12/08 05:19:08;;;;;;;;;;;;;;;24.92;65.29;96121.58;608166;233;65092;-67
2021/12/08 05:21:37;;;;;;;;;;;;;;;24.90;64.59;96123.00;608213;233;65079;-67
2021/12/08 05:24:08;;;;;;;;;;;;;;;24.91;66.72;96122.70;608131;233;67406;-67
2021/12/08 05:26:37;;;;;;;;;;;;;;;24.87;62.43;96121.73;607847;233;63014;-65
2021/12/08 05:29:09;;;;;;;;;;;;;;;24.90;65.43;96120.31;607795;233;65054;-66
2021/12/08 05:31:37;;;;;;;;;;;;;;;24.88;63.81;96106.40;607939;233;67021;-65
2021/12/08 05:34:05;;;;;;;;;;;;;;;24.87;65.79;96110.20;607945;233;65007;-64
2021/12/08 05:36:33;;;;;;;;;;;;;;;24.86;63.21;96117.48;607916;233;67173;-65
2021/12/08 05:39:02;;;;;;;;;;;;;;;24.87;64.59;96123.64;607936;233;66998;-65
2021/12/08 05:41:34;;;;;;;;;;;;;;;24.88;64.91;96123.34;607959;233;65025;-65
2021/12/08 05:44:02;;;;;;;;;;;;;;;24.87;66.35;96124.43;607894;233;66937;-65
2021/12/08 05:46:30;;;;;;;;;;;;;;;24.86;65.76;96136.30;607958;233;66913;-65
2021/12/08 05:48:59;;;;;;;;;;;;;;;24.85;63.64;96134.70;607885;233;64999;-66
2021/12/08 05:51:28;;;;;;;;;;;;;;;24.84;62.74;96141.19;607953;233;64047;-66
2021/12/08 05:53:58;;;;;;;;;;;;;;;24.86;64.51;96141.67;607020;233;67040;-66
2021/12/08 05:56:26;;;;;;;;;;;;;;;24.89;65.85;96149.09;606303;234;65048;-67
2021/12/08 05:58:55;;;;;;;;;;;;;;;24.86;60.11;96151.64;606368;234;67231;-67
2021/12/08 06:01:33;;;;;;;;;;;;;;;24.89;61.60;96156.38;606289;234;64922;-66
2021/12/08 06:04:01;;;;;;;;;;;;;;;24.87;66.01;96155.89;606152;234;65062;-67
2021/12/08 06:06:29;;;;;;;;;;;;;;;24.85;65.05;96160.78;606460;234;64850;-67
2021/12/08 06:08:57;;;;;;;;;;;;;;;24.86;67.71;96165.86;606512;234;64931;-67
2021/12/08 06:11:26;;;;;;;;;;;;;;;24.85;64.79;96166.95;606484;234;64953;-67
2021/12/08 06:13:59;;;;;;;;;;;;;;;24.89;67.63;96175.97;606560;234;64864;-67
2021/12/08 06:16:24;;;;;;;;;;;;;;;24.90;67.07;96174.07;606537;234;64927;-67
2021/12/08 06:18:52;;;;;;;;;;;;;;;24.89;68.10;96172.50;606540;234;62803;-67
2021/12/08 06:21:22;;;;;;;;;;;;;;;24.87;69.30;96180.08;606544;234;67146;-67
2021/12/08 06:23:49;;;;;;;;;;;;;;;24.88;67.21;96185.16;606576;234;65190;-67
2021/12/08 06:26:18;;;;;;;;;;;;;;;24.90;63.37;96190.98;606573;234;63044;-67
2021/12/08 06:28:46;;;;;;;;;;;;;;;24.92;69.65;96186.09;606598;234;65048;-67
2021/12/08 06:31:15;;;;;;;;;;;;;;;24.93;68.16;96195.72;606667;234;64762;-67
2021/12/08 06:33:43;;;;;;;;;;;;;;;24.93;69.31;96194.94;606550;234;65082;-67
2021/12/08 06:36:12;;;;;;;;;;;;;;;24.92;66.50;96198.73;606576;234;67067;-67
2021/12/08 06:38:39;;;;;;;;;;;;;;;24.94;68.56;96199.22;606548;234;67448;-67
2021/12/08 06:41:08;;;;;;;;;;;;;;;24.94;69.52;96202.70;606580;234;64987;-67
2021/12/08 06:43:37;;;;;;;;;;;;;;;24.95;67.08;96198.89;606615;234;67250;-67
2021/12/08 06:46:06;;;;;;;;;;;;;;;24.97;66.00;96203.96;606527;234;66845;-67
2021/12/08 06:48:35;;;;;;;;;;;;;;;24.99;64.29;96199.85;606487;234;65157;-67
2021/12/08 06:51:09;;;;;;;;;;;;;;;25.05;64.54;96213.14;606494;234;67104;-67
2021/12/08 06:53:38;;;;;;;;;;;;;;;25.05;62.61;96208.55;606429;234;66828;-68
2021/12/08 06:56:10;;;;;;;;;;;;;;;25.07;62.82;96213.59;605930;234;62862;-65
2021/12/08 06:58:39;;;;;;;;;;;;;;;25.10;64.89;96216.45;606606;234;66595;-65
2021/12/08 07:01:17;;;;;;;;;;;;;;;25.09;63.99;96217.55;606504;234;65682;-63
2021/12/08 07:03:50;;;;;;;;;;;;;;;25.09;64.17;96220.23;606787;233;65007;-63
2021/12/08 07:06:30;;;;;;;;;;;;;;;25.11;62.04;96212.65;606948;233;65362;-63
2021/12/08 07:08:45;;;;;;;;;;;;;;;25.14;63.55;96217.39;606537;233;65001;-64
2021/12/08 07:11:14;;;;;;;;;;;;;;;25.15;63.44;96221.68;607108;233;65210;-65
2021/12/08 07:13:43;;;;;;;;;;;;;;;25.17;60.66;96226.75;607377;233;67184;-64
2021/12/08 07:16:15;;;;;;;;;;;;;;;25.18;63.30;96233.70;607241;233;65092;-71
2021/12/08 07:18:52;;;;;;;;;;;;;;;25.15;62.08;96231.64;606984;233;64996;-63
2021/12/08 07:21:15;;;;;;;;;;;;;;;25.14;60.28;96232.73;607053;233;47177;-63
2021/12/08 07:23:50;;;;;;;;;;;;;;;25.22;57.77;96237.35;607194;233;67024;-64
2021/12/08 07:26:19;;;;;;;;;;;;;;;25.29;59.71;96239.55;607355;233;62914;-63
2021/12/08 07:28:47;;;;;;;;;;;;;;;25.31;59.41;96243.50;607273;233;64901;-64
2021/12/08 07:31:17;;;;;;;;;;;;;;;25.32;59.63;96242.41;607239;233;64056;-64
2021/12/08 07:33:45;;;;;;;;;;;;;;;25.34;59.60;96242.08;607040;233;62901;-63
2021/12/08 07:36:15;;;;;;;;;;;;;;;25.37;59.53;96247.64;607255;233;67317;-62
2021/12/08 07:38:44;;;;;;;;;;;;;;;25.37;59.95;96242.26;607119;233;68646;-61
2021/12/08 07:41:14;;;;;;;;;;;;;;;25.38;60.62;96249.20;607284;233;65063;-61
2021/12/08 07:43:45;;;;;;;;;;;;;;;25.40;60.52;96249.69;607072;233;67421;-62
2021/12/08 07:46:14;;;;;;;;;;;;;;;25.43;60.94;96242.88;607266;233;66630;-64
2021/12/08 07:48:43;;;;;;;;;;;;;;;25.47;61.80;96249.19;607230;233;65123;-65
2021/12/08 07:51:12;;;;;;;;;;;;;;;25.51;60.96;96249.34;607329;233;67577;-63
2021/12/08 07:53:40;;;;;;;;;;;;;;;25.50;60.51;96245.86;607072;233;67239;-66
2021/12/08 07:56:09;;;;;;;;;;;;;;;25.51;60.76;96252.84;606986;233;64917;-65
2021/12/08 07:58:38;;;;;;;;;;;;;;;25.52;60.17;96253.63;606962;233;64954;-63
2021/12/08 08:01:07;;;;;;;;;;;;;;;25.55;60.37;96264.53;606957;233;67137;-65
2021/12/08 08:03:35;;;;;;;;;;;;;;;25.57;60.42;96269.61;606998;233;65071;-64
2021/12/08 08:06:04;;;;;;;;;;;;;;;25.57;60.75;96266.92;606938;233;67249;-64
2021/12/08 08:08:33;;;;;;;;;;;;;;;25.56;60.25;96266.10;606730;233;66723;-65
2021/12/08 08:11:08;;;;;;;;;;;;;;;25.57;60.52;96262.33;606967;233;65028;-65
2021/12/08 08:13:36;;;;;;;;;;;;;;;25.58;61.61;96263.11;606653;233;64711;-65
2021/12/08 08:16:05;;;;;;;;;;;;;;;25.58;62.16;96261.20;606985;233;65504;-65
2021/12/08 08:18:34;;;;;;;;;;;;;;;25.59;61.29;96264.67;607025;233;65090;-66
2021/12/08 08:21:03;;;;;;;;;;;;;;;25.59;60.42;96270.88;606622;233;67561;-65
2021/12/08 08:23:32;;;;;;;;;;;;;;;25.59;60.73;96262.80;607433;233;67041;-66
2021/12/08 08:26:01;;;;;;;;;;;;;;;25.60;61.43;96266.28;607429;233;65229;-66
2021/12/08 08:28:29;;;;;;;;;;;;;;;25.61;62.42;96265.16;607342;233;65033;-65
2021/12/08 08:30:57;;;;;;;;;;;;;;;25.61;61.21;96267.84;607386;233;64934;-64
2021/12/08 08:33:27;;;;;;;;;;;;;;;25.55;58.28;96263.75;607407;231;62813;-71
2021/12/08 08:35:56;;;;;;;;;;;;;;;25.51;60.56;96271.67;607432;233;64707;-62
2021/12/08 08:38:25;;;;;;;;;;;;;;;25.58;58.01;96268.48;607345;233;64634;-60
2021/12/08 08:40:54;;;;;;;;;;;;;;;25.63;60.44;96271.02;607231;231;64836;-61
2021/12/08 08:43:22;;;;;;;;;;;;;;;25.63;61.80;96271.02;606576;233;64634;-60
2021/12/08 08:45:52;;;;;;;;;;;;;;;25.66;60.89;96273.06;606506;233;64606;-61
2021/12/08 08:48:21;;;;;;;;;;;;;;;25.65;61.32;96266.12;607440;233;65025;-61
2021/12/08 08:50:53;;;;;;;;;;;;;;;25.67;61.39;96266.56;607397;233;66931;-61
2021/12/08 08:53:22;;;;;;;;;;;;;;;25.69;61.21;96267.83;607243;233;64812;-60
2021/12/08 08:55:53;;;;;;;;;;;;;;;25.65;61.57;96260.73;608047;233;65051;-60
2021/12/08 08:58:22;;;;;;;;;;;;;;;25.67;60.56;96256.61;608177;233;66988;-60
2021/12/08 09:01:00;;;;;;;;;;;;;;;25.68;60.56;96257.41;608128;233;64611;-60
2021/12/08 09:03:29;;;;;;;;;;;;;;;25.69;61.57;96254.38;607861;233;65095;-60
2021/12/08 09:06:01;;;;;;;;;;;;;;;25.67;61.41;96253.92;608086;233;67111;-60
2021/12/08 09:08:30;;;;;;;;;;;;;;;25.69;61.84;96248.20;608022;233;67354;-60
2021/12/08 09:11:06;;;;;;;;;;;;;;;25.70;61.85;96260.57;607969;232;65042;-59
2021/12/08 09:13:38;;;;;;;;;;;;;;;25.72;61.35;96252.95;608144;233;67087;-66
2021/12/08 09:16:08;;;;;;;;;;;;;;;25.72;60.77;96252.95;608075;233;64861;-61
2021/12/08 09:18:44;;;;;;;;;;;;;;;25.73;61.01;96251.85;608060;233;64919;-61
2021/12/08 09:21:17;;;;;;;;;;;;;;;25.73;61.12;96256.42;607665;233;67648;-58
2021/12/08 09:23:47;;;;;;;;;;;;;;;25.63;58.62;96254.88;607997;233;64842;-62
2021/12/08 09:26:16;;;;;;;;;;;;;;;25.66;60.36;96256.92;608054;233;64943;-60
2021/12/08 09:28:46;;;;;;;;;;;;;;;25.68;61.28;96250.11;608116;233;66933;-65
2021/12/08 09:31:17;;;;;;;;;;;;;;;25.72;61.67;96250.25;607818;233;66966;-63
2021/12/08 09:33:50;;;;;;;;;;;;;;;25.72;61.28;96238.70;608051;233;65948;-63
2021/12/08 09:36:18;;;;;;;;;;;;;;;25.75;60.24;96233.47;599818;236;65087;-62
2021/12/08 09:38:51;;;;;;;;;;;;;;;25.71;59.01;96232.54;599810;236;67118;-63
2021/12/08 09:41:20;;;;;;;;;;;;;;;25.71;60.09;96234.45;599532;236;66620;-61
2021/12/08 09:43:52;;;;;;;;;;;;;;;25.74;61.63;96226.52;599887;236;67172;-65
2021/12/08 09:46:20;;;;;;;;;;;;;;;25.74;60.77;96225.73;599807;236;65061;-66
2021/12/08 09:48:49;;;;;;;;;;;;;;;25.74;60.58;96212.27;599857;236;62947;-65
2021/12/08 09:51:18;;;;;;;;;;;;;;;25.74;61.39;96223.82;599785;236;64886;-65
2021/12/08 09:53:46;;;;;;;;;;;;;;;25.76;60.82;96220.82;599694;235;64388;-65
2021/12/08 09:56:15;;;;;;;;;;;;;;;25.77;60.81;96219.70;599866;236;63109;-65
2021/12/08 09:58:44;;;;;;;;;;;;;;;25.75;60.76;96216.53;599841;236;65072;-68
2021/12/08 10:01:16;;;;;;;;;;;;;;;25.78;59.71;96215.89;599817;236;66961;-67
2021/12/08 10:03:43;;;;;;;;;;;;;;;25.81;59.51;96207.16;599838;236;65012;-69
2021/12/08 10:06:12;;;;;;;;;;;;;;;25.83;59.92;96203.08;599847;236;67088;-70
2021/12/08 10:08:41;;;;;;;;;;;;;;;25.85;59.22;96202.77;599852;236;64949;-71
2021/12/08 10:11:10;;;;;;;;;;;;;;;25.85;59.43;96205.45;599756;236;62787;-69
2021/12/08 10:13:38;;;;;;;;;;;;;;;25.84;59.88;96199.29;608608;233;64855;-67
2021/12/08 10:16:07;;;;;;;;;;;;;;;25.87;59.76;96198.64;608614;233;66790;-68
2021/12/08 10:18:35;;;;;;;;;;;;;;;25.88;58.87;96196.73;602674;233;63253;-65
2021/12/08 10:21:03;;;;;;;;;;;;;;;25.85;58.00;96203.55;608525;233;67290;-66
2021/12/08 10:23:35;;;;;;;;;;;;;;;25.85;58.48;96205.45;608587;233;67343;-66
2021/12/08 10:26:04;;;;;;;;;;;;;;;25.87;59.46;96206.72;608595;233;65053;-65
2021/12/08 10:28:38;;;;;;;;;;;;;;;25.89;58.38;96206.37;608557;233;64753;-65
2021/12/08 10:31:14;;;;;;;;;;;;;;;25.89;59.02;96204.50;608516;233;66804;-65
2021/12/08 10:33:51;;;;;;;;;;;;;;;25.89;58.18;96206.37;608528;233;62938;-65
2021/12/08 10:39:04;;;;;;;;;;;;;;;25.94;57.60;96200.04;608658;233;67281;-64
2021/12/08 10:41:48;;;;;;;;;;;;;;;25.95;57.89;96201.63;608627;233;64978;-64
2021/12/08 10:44:17;;;;;;;;;;;;;;;25.98;57.96;96200.98;608293;233;67016;-64
2021/12/08 10:46:44;;;;;;;;;;;;;;;26.01;57.14;96201.12;608249;233;64963;-59
2021/12/08 10:49:26;;;;;;;;;;;;;;;26.01;57.75;96200.34;608175;233;62982;-59
2021/12/08 10:54:37;;;;;;;;;;;;;;;26.04;57.78;96200.47;605758;233;64852;-59
2021/12/08 10:57:06;;;;;;;;;;;;;;;26.07;57.98;96194.44;605159;234;65063;-58
2021/12/08 10:59:52;;;;;;;;;;;;;;;26.07;57.17;96191.74;604436;234;65648;-59
2021/12/08 11:02:37;;;;;;;;;;;;;;;26.09;58.20;96196.81;605207;234;66952;-59
2021/12/08 11:05:06;;;;;;;;;;;;;;;26.10;57.63;96196.48;605087;234;63088;-62
2021/12/08 11:07:34;;;;;;;;;;;;;;;26.11;57.70;96189.21;605191;234;67198;-62
2021/12/08 11:10:03;;;;;;;;;;;;;;;26.11;57.93;96194.59;605052;234;66996;-60
2021/12/08 11:12:40;;;;;;;;;;;;;;;26.14;57.40;96193.95;604416;234;62668;-58
2021/12/08 11:15:10;;;;;;;;;;;;;;;26.15;56.97;96186.66;605113;234;67203;-59
2021/12/08 11:17:39;;;;;;;;;;;;;;;26.17;57.19;96184.43;604769;234;66928;-58
2021/12/08 11:20:20;;;;;;;;;;;;;;;26.17;57.27;96193.30;605138;234;64914;-58
2021/12/08 11:23:04;;;;;;;;;;;;;;;26.18;57.27;96191.39;605194;234;67262;-59
2021/12/08 11:25:33;;;;;;;;;;;;;;;26.20;57.17;96187.26;605075;234;67028;-60
2021/12/08 11:28:19;;;;;;;;;;;;;;;26.22;56.82;96179.65;605157;234;65070;-59
2021/12/08 11:30:47;;;;;;;;;;;;;;;26.22;56.97;96179.65;605225;234;67091;-59
2021/12/08 11:33:18;;;;;;;;;;;;;;;26.22;57.19;96179.65;605112;234;66890;-59
2021/12/08 11:35:46;;;;;;;;;;;;;;;26.22;57.21;96176.95;605004;234;63150;-60
2021/12/08 11:38:14;;;;;;;;;;;;;;;26.22;57.70;96176.95;605178;234;67173;-59
2021/12/08 11:40:42;;;;;;;;;;;;;;;26.23;56.73;96170.45;605050;234;65432;-59
2021/12/08 11:43:15;;;;;;;;;;;;;;;26.25;57.19;96170.13;605111;234;63033;-59
2021/12/08 11:45:43;;;;;;;;;;;;;;;26.27;57.48;96165.19;604840;232;65013;-61
2021/12/08 11:48:24;;;;;;;;;;;;;;;26.26;57.04;96158.23;605102;234;66998;-62
2021/12/08 11:50:53;;;;;;;;;;;;;;;26.27;57.41;96163.31;605126;234;65140;-62
2021/12/08 11:53:21;;;;;;;;;;;;;;;26.28;57.48;96164.88;603720;234;67258;-59
2021/12/08 11:55:49;;;;;;;;;;;;;;;26.27;57.60;96170.58;604382;234;66855;-59
2021/12/08 11:58:17;;;;;;;;;;;;;;;26.28;57.27;96172.95;604486;234;64898;-59
2021/12/08 12:00:48;;;;;;;;;;;;;;;26.28;57.16;96164.88;604445;234;64760;-57
2021/12/08 12:03:15;;;;;;;;;;;;;;;26.27;57.10;96162.50;604204;234;66595;-58
2021/12/08 12:05:44;;;;;;;;;;;;;;;26.29;57.77;96171.83;604412;234;64946;-59
2021/12/08 12:08:13;;;;;;;;;;;;;;;26.28;58.02;96170.27;604354;234;65035;-59
2021/12/08 12:10:42;;;;;;;;;;;;;;;26.29;56.92;96169.14;604472;234;67168;-58
2021/12/08 12:13:10;;;;;;;;;;;;;;;26.29;56.65;96163.75;604402;234;64937;-58
2021/12/08 12:15:41;;;;;;;;;;;;;;;26.29;57.34;96171.83;604404;234;67252;-59
2021/12/08 12:18:09;;;;;;;;;;;;;;;26.29;59.39;96171.83;603915;234;67116;-62
2021/12/08 12:20:39;;;;;;;;;;;;;;;26.29;58.13;96174.52;604447;234;64918;-64
2021/12/08 12:23:24;;;;;;;;;;;;;;;26.29;57.14;96162.97;604489;234;67527;-59
2021/12/08 12:25:53;;;;;;;;;;;;;;;26.31;57.66;96166.91;604382;234;64935;-59
2021/12/08 12:28:35;;;;;;;;;;;;;;;26.30;57.41;96169.92;604515;234;64887;-63
2021/12/08 12:31:19;;;;;;;;;;;;;;;26.27;58.81;96168.70;604470;234;65002;-63
2021/12/08 12:33:43;;;;;;;;;;;;;;;26.29;57.00;96177.22;604233;234;64644;-63
2021/12/08 12:36:18;;;;;;;;;;;;;;;26.30;57.10;96175.31;604438;234;65016;-65
2021/12/08 12:38:47;;;;;;;;;;;;;;;26.29;56.88;96176.44;604435;234;64986;-64
2021/12/08 12:41:25;;;;;;;;;;;;;;;26.29;56.94;96182.60;604412;234;67060;-67
2021/12/08 12:43:52;;;;;;;;;;;;;;;26.30;57.15;96186.08;604501;234;62600;-61
2021/12/08 12:46:22;;;;;;;;;;;;;;;26.31;56.59;96187.67;604531;234;64773;-57
2021/12/08 12:48:52;;;;;;;;;;;;;;;26.33;57.15;96196.23;604432;234;64423;-58
2021/12/08 12:51:21;;;;;;;;;;;;;;;26.31;56.62;96187.67;604499;234;66613;-58
2021/12/08 12:53:54;;;;;;;;;;;;;;;26.33;57.43;96191.63;604346;234;64774;-59
2021/12/08 12:56:20;;;;;;;;;;;;;;;26.31;56.33;96187.67;604320;234;64662;-59
2021/12/08 12:58:49;;;;;;;;;;;;;;;26.32;57.61;96195.42;603617;234;66047;-60
2021/12/08 13:01:19;;;;;;;;;;;;;;;26.32;58.00;96190.03;604429;234;64646;-65
2021/12/08 13:03:48;;;;;;;;;;;;;;;26.32;57.07;96190.03;604185;234;66874;-66
2021/12/08 13:06:17;;;;;;;;;;;;;;;26.29;58.27;96190.69;604364;234;65081;-62
2021/12/08 13:08:51;;;;;;;;;;;;;;;26.32;57.68;96195.42;603556;234;66726;-66
2021/12/08 13:11:30;;;;;;;;;;;;;;;26.33;57.63;96202.41;604357;234;64773;-64
2021/12/08 13:13:57;;;;;;;;;;;;;;;26.35;56.69;96197.48;604354;234;64944;-64
2021/12/08 13:16:29;;;;;;;;;;;;;;;26.32;57.24;96206.19;604440;234;67037;-63
2021/12/08 13:18:58;;;;;;;;;;;;;;;26.31;56.90;96209.23;604274;234;64881;-63
2021/12/08 13:21:42;;;;;;;;;;;;;;;26.30;56.05;96207.63;604419;234;65308;-66
2021/12/08 13:24:12;;;;;;;;;;;;;;;26.30;56.14;96204.94;604423;234;65675;-69
2021/12/08 13:26:48;;;;;;;;;;;;;;;26.32;57.34;96208.88;602074;234;64911;-68
2021/12/08 13:29:21;;;;;;;;;;;;;;;26.33;57.24;96207.00;604470;234;62904;-65
2021/12/08 13:31:58;;;;;;;;;;;;;;;26.32;56.77;96211.58;604149;234;67156;-63
2021/12/08 13:34:15;;;;;;;;;;;;;;;26.31;57.79;96211.92;603855;234;65012;-64
2021/12/08 13:36:45;;;;;;;;;;;;;;;26.32;58.03;96216.97;604377;234;63013;-61
2021/12/08 13:39:17;;;;;;;;;;;;;;;26.33;56.86;96223.95;604311;234;67247;-62